Huggers Landing, Alabama
Current Conditions -  °F | °C
As of 1:55 PM on Saturday 25 Oct 2014 (Local Time) from KJKA Reporting Station
Clear Clear  
Wind Chill: 77°   Ceiling: Unl
Heat Index: 78°   Visibility: 10mi
Dew Point: 49°   Wind: 7mph
Humidity: 37%   Direction: 340°NNW
Pressure: 30.05"   Gusts: 17mph
Location:  30.3794°N, 87.7151°W
Report Text: KJKA 251855Z AUTO 34006G15KT 10SM CLR 25/09 A3005 RMK AO2 T02490094
Loading
Personal Weather Stations






























Interactive Weather Map
Tropical Storm Tracking
New forecast layout! Learn more

10-Day Weather Forecast

Advertisements
Track Severe Weather on mobile